Salten — LMFM — position and weather

sailwx.info

Track history (hours):
 
Tides and Currents Weather Stations Pressure Air Temp Water Temp Dewpoint Dewpoint Depression Visibility Wind Speed Wind Dir Waves Ship Positions

Salten

Last reported at 2015-Jul-04 16:15 UTC. Time now 2015-Jul-05 04:29 UTC.
Position N 67°40' E 014°45'.

Length 41 m; draft 2 m.

Type: High speed craft. MMSI: 259387000.

Date/timePositionNaut miles runAvg speedWind from/ knotsBaromVisibWave heightAir tempDewpointWater temp
2015-Jul-04 16:15N 67°40' E 014°45'1825.8
2015-Jul-04 15:34N 67°23' E 014°30'7 6.9
2015-Jul-04 14:33N 67°17' E 014°22'0 0.0
2015-Jul-04 13:33N 67°17' E 014°22'0 0.0
2015-Jul-04 12:33N 67°17' E 014°22'0 0.0
2015-Jul-04 11:33N 67°17' E 014°22'0 0.4
2015-Jul-04 10:33N 67°17' E 014°23'1313.0
2015-Jul-04 09:33N 67°07' E 014°02'4414.5
2015-Jul-04 06:32N 66°31' E 012°60'10 0.8
2015-Jul-03 18:33N 66°21' E 012°56'3611.6
2015-Jul-03 15:27N 66°54' E 013°31'1719.6
2015-Jul-03 14:33N 67°08' E 013°58'1313.1
2015-Jul-03 13:33N 67°17' E 014°22'0 0.0
2015-Jul-03 12:33N 67°17' E 014°22'0 0.0
2015-Jul-03 11:33N 67°17' E 014°22'0 0.0
2015-Jul-03 10:33N 67°17' E 014°22'1312.7
2015-Jul-03 09:33N 67°08' E 013°59'4414.4
2015-Jul-03 06:30N 66°31' E 013°00'10 0.8
2015-Jul-02 18:33N 66°22' E 012°50'3711.8
2015-Jul-02 15:24N 66°56' E 013°27'1821.3
2015-Jul-02 14:33N 67°07' E 014°03'1212.3
2015-Jul-02 13:33N 67°17' E 014°22'2 2.1
2015-Jul-02 12:34N 67°19' E 014°20'6 6.1
2015-Jul-02 11:33N 67°24' E 014°11'8 8.2
2015-Jul-02 10:33N 67°17' E 014°22'7 7.1
2015-Jul-02 09:34N 67°12' E 014°09'3816.1
2015-Jul-02 07:11N 66°41' E 013°13'1415.7
2015-Jul-02 06:16N 66°28' E 012°56'7 0.6
2015-Jul-01 18:26N 66°21' E 012°57'3611.7
2015-Jul-01 15:22N 66°54' E 013°32'1518.2
2015-Jul-01 14:34N 67°06' E 013°56'1615.5
2015-Jul-01 13:33N 67°17' E 014°22'0 0.0
2015-Jul-01 12:34N 67°17' E 014°22'0 0.0
2015-Jul-01 11:33N 67°17' E 014°22'0 0.0
2015-Jul-01 10:33N 67°17' E 014°22'0 0.0
2015-Jul-01 09:33N 67°17' E 014°22'0 0.0
2015-Jul-01 08:33N 67°17' E 014°22'1010.2
2015-Jul-01 07:33N 67°27' E 014°29'2 0.2
2015-Jun-30 15:34N 67°25' E 014°27'8 7.7
2015-Jun-30 14:34N 67°17' E 014°22'0 0.0
2015-Jun-30 13:33N 67°17' E 014°22'0 0.0
2015-Jun-30 12:34N 67°17' E 014°22'0 0.0
2015-Jun-30 11:34N 67°17' E 014°22'0 0.1
2015-Jun-30 10:33N 67°17' E 014°23'1212.3
2015-Jun-30 09:33N 67°08' E 013°60'1817.6
2015-Jun-30 08:33N 66°55' E 013°29'2713.1
2015-Jun-30 06:29N 66°31' E 013°00'10 0.9
2015-Jun-29 18:32N 66°21' E 012°57'3611.5
2015-Jun-29 15:23N 66°54' E 013°31'1517.6
2015-Jun-29 14:33N 67°05' E 013°56'1615.7
2015-Jun-29 13:33N 67°17' E 014°22'0 0.0
2015-Jun-29 12:33N 67°17' E 014°22'0 0.0
2015-Jun-29 11:33N 67°17' E 014°22'0 0.0
2015-Jun-29 10:33N 67°17' E 014°22'1111.3
2015-Jun-29 09:33N 67°09' E 014°01'4714.9
2015-Jun-29 06:25N 66°30' E 012°58'10 0.6
2015-Jun-28 15:13N 66°20' E 012°52'3713.2
2015-Jun-28 12:23N 66°54' E 013°31'1720.9
2015-Jun-28 11:33N 67°08' E 013°58'1313.0
2015-Jun-28 10:34N 67°17' E 014°22'0 0.0
2015-Jun-28 09:33N 67°17' E 014°22'0 0.0
2015-Jun-28 08:34N 67°17' E 014°22'0 0.0
2015-Jun-28 07:34N 67°17' E 014°22'0 0.0
2015-Jun-28 06:33N 67°17' E 014°22'0 0.0
2015-Jun-28 05:34N 67°17' E 014°22'0 0.0
2015-Jun-28 04:33N 67°17' E 014°22'0 0.0
2015-Jun-28 03:33N 67°17' E 014°22'0 0.0
2015-Jun-28 02:33N 67°17' E 014°22'0 0.0
2015-Jun-28 01:34N 67°17' E 014°22'0 0.0
2015-Jun-28 00:34N 67°17' E 014°22'0 0.0
2015-Jun-27 23:34N 67°17' E 014°22'0 0.0
2015-Jun-27 22:33N 67°17' E 014°22'0 0.0
2015-Jun-27 21:34N 67°17' E 014°22'0 0.0
2015-Jun-27 20:34N 67°17' E 014°22'0 0.0
2015-Jun-27 19:34N 67°17' E 014°22'0 0.0
2015-Jun-27 18:33N 67°17' E 014°22'0 0.0
2015-Jun-27 17:34N 67°17' E 014°22'0 0.0
2015-Jun-27 16:33N 67°17' E 014°22'0 0.0
2015-Jun-27 15:34N 67°17' E 014°22'0 0.0
2015-Jun-27 14:33N 67°17' E 014°22'0 0.0
2015-Jun-27 13:33N 67°17' E 014°22'0 0.0
2015-Jun-27 12:34N 67°17' E 014°22'0 0.0
2015-Jun-27 11:33N 67°17' E 014°22'0 0.0
2015-Jun-27 10:34N 67°17' E 014°22'0 0.0
2015-Jun-27 09:33N 67°17' E 014°22'0 0.0
2015-Jun-27 08:33N 67°17' E 014°22'7 7.3
2015-Jun-27 07:33N 67°24' E 014°26'8 0.5
2015-Jun-26 16:34N 67°30' E 014°39'1514.6
2015-Jun-26 15:33N 67°17' E 014°22'7 3.7
2015-Jun-26 13:34N 67°24' E 014°27'7 7.1
2015-Jun-26 12:33N 67°17' E 014°23'0 0.4
2015-Jun-26 11:33N 67°17' E 014°22'0 0.0
2015-Jun-26 10:33N 67°17' E 014°22'0 0.0
2015-Jun-26 09:33N 67°17' E 014°22'0 0.0
2015-Jun-26 08:33N 67°17' E 014°22'8 7.6
2015-Jun-26 07:34N 67°24' E 014°27'1 0.0
2015-Jun-25 15:34N 67°25' E 014°27'8 8.2
2015-Jun-25 14:33N 67°17' E 014°22'0 0.0
2015-Jun-25 13:33N 67°17' E 014°22'0 0.0
2015-Jun-25 12:33N 67°17' E 014°22'0 0.0
2015-Jun-25 11:33N 67°17' E 014°22'0 0.0
2015-Jun-25 10:33N 67°17' E 014°22'0 0.0
2015-Jun-25 09:33N 67°17' E 014°22'0 0.0
2015-Jun-25 08:33N 67°17' E 014°22'1211.8
2015-Jun-25 07:34N 67°28' E 014°35'  
Track history (hours):
 
Tides and Currents Weather Stations Pressure Air Temp Water Temp Dewpoint Dewpoint Depression Visibility Wind Speed Wind Dir Waves Ship Positions

Salten

Last reported at 2015-Jul-04 16:15 UTC. Time now 2015-Jul-05 04:29 UTC.
Position N 67°40' E 014°45'.

Length 41 m; draft 2 m.

Type: High speed craft. MMSI: 259387000.

Date/timePositionNaut miles runAvg speedWind from/ knotsBaromVisibWave heightAir tempDewpointWater temp
2015-Jul-04 16:15N 67°40' E 014°45'1825.8
2015-Jul-04 15:34N 67°23' E 014°30'7 6.9
2015-Jul-04 14:33N 67°17' E 014°22'0 0.0
2015-Jul-04 13:33N 67°17' E 014°22'0 0.0
2015-Jul-04 12:33N 67°17' E 014°22'0 0.0
2015-Jul-04 11:33N 67°17' E 014°22'0 0.4
2015-Jul-04 10:33N 67°17' E 014°23'1313.0
2015-Jul-04 09:33N 67°07' E 014°02'4414.5
2015-Jul-04 06:32N 66°31' E 012°60'10 0.8
2015-Jul-03 18:33N 66°21' E 012°56'3611.6
2015-Jul-03 15:27N 66°54' E 013°31'1719.6
2015-Jul-03 14:33N 67°08' E 013°58'1313.1
2015-Jul-03 13:33N 67°17' E 014°22'0 0.0
2015-Jul-03 12:33N 67°17' E 014°22'0 0.0
2015-Jul-03 11:33N 67°17' E 014°22'0 0.0
2015-Jul-03 10:33N 67°17' E 014°22'1312.7
2015-Jul-03 09:33N 67°08' E 013°59'4414.4
2015-Jul-03 06:30N 66°31' E 013°00'10 0.8
2015-Jul-02 18:33N 66°22' E 012°50'3711.8
2015-Jul-02 15:24N 66°56' E 013°27'1821.3
2015-Jul-02 14:33N 67°07' E 014°03'1212.3
2015-Jul-02 13:33N 67°17' E 014°22'2 2.1
2015-Jul-02 12:34N 67°19' E 014°20'6 6.1
2015-Jul-02 11:33N 67°24' E 014°11'8 8.2
2015-Jul-02 10:33N 67°17' E 014°22'7 7.1
2015-Jul-02 09:34N 67°12' E 014°09'3816.1
2015-Jul-02 07:11N 66°41' E 013°13'1415.7
2015-Jul-02 06:16N 66°28' E 012°56'7 0.6
2015-Jul-01 18:26N 66°21' E 012°57'3611.7
2015-Jul-01 15:22N 66°54' E 013°32'1518.2
2015-Jul-01 14:34N 67°06' E 013°56'1615.5
2015-Jul-01 13:33N 67°17' E 014°22'0 0.0
2015-Jul-01 12:34N 67°17' E 014°22'0 0.0
2015-Jul-01 11:33N 67°17' E 014°22'0 0.0
2015-Jul-01 10:33N 67°17' E 014°22'0 0.0
2015-Jul-01 09:33N 67°17' E 014°22'0 0.0
2015-Jul-01 08:33N 67°17' E 014°22'1010.2
2015-Jul-01 07:33N 67°27' E 014°29'2 0.2
2015-Jun-30 15:34N 67°25' E 014°27'8 7.7
2015-Jun-30 14:34N 67°17' E 014°22'0 0.0
2015-Jun-30 13:33N 67°17' E 014°22'0 0.0
2015-Jun-30 12:34N 67°17' E 014°22'0 0.0
2015-Jun-30 11:34N 67°17' E 014°22'0 0.1
2015-Jun-30 10:33N 67°17' E 014°23'1212.3
2015-Jun-30 09:33N 67°08' E 013°60'1817.6
2015-Jun-30 08:33N 66°55' E 013°29'2713.1
2015-Jun-30 06:29N 66°31' E 013°00'10 0.9
2015-Jun-29 18:32N 66°21' E 012°57'3611.5
2015-Jun-29 15:23N 66°54' E 013°31'1517.6
2015-Jun-29 14:33N 67°05' E 013°56'1615.7
2015-Jun-29 13:33N 67°17' E 014°22'0 0.0
2015-Jun-29 12:33N 67°17' E 014°22'0 0.0
2015-Jun-29 11:33N 67°17' E 014°22'0 0.0
2015-Jun-29 10:33N 67°17' E 014°22'1111.3
2015-Jun-29 09:33N 67°09' E 014°01'4714.9
2015-Jun-29 06:25N 66°30' E 012°58'10 0.6
2015-Jun-28 15:13N 66°20' E 012°52'3713.2
2015-Jun-28 12:23N 66°54' E 013°31'1720.9
2015-Jun-28 11:33N 67°08' E 013°58'1313.0
2015-Jun-28 10:34N 67°17' E 014°22'0 0.0
2015-Jun-28 09:33N 67°17' E 014°22'0 0.0
2015-Jun-28 08:34N 67°17' E 014°22'0 0.0
2015-Jun-28 07:34N 67°17' E 014°22'0 0.0
2015-Jun-28 06:33N 67°17' E 014°22'0 0.0
2015-Jun-28 05:34N 67°17' E 014°22'0 0.0
2015-Jun-28 04:33N 67°17' E 014°22'0 0.0
2015-Jun-28 03:33N 67°17' E 014°22'0 0.0
2015-Jun-28 02:33N 67°17' E 014°22'0 0.0
2015-Jun-28 01:34N 67°17' E 014°22'0 0.0
2015-Jun-28 00:34N 67°17' E 014°22'0 0.0
2015-Jun-27 23:34N 67°17' E 014°22'0 0.0
2015-Jun-27 22:33N 67°17' E 014°22'0 0.0
2015-Jun-27 21:34N 67°17' E 014°22'0 0.0
2015-Jun-27 20:34N 67°17' E 014°22'0 0.0
2015-Jun-27 19:34N 67°17' E 014°22'0 0.0
2015-Jun-27 18:33N 67°17' E 014°22'0 0.0
2015-Jun-27 17:34N 67°17' E 014°22'0 0.0
2015-Jun-27 16:33N 67°17' E 014°22'0 0.0
2015-Jun-27 15:34N 67°17' E 014°22'0 0.0
2015-Jun-27 14:33N 67°17' E 014°22'0 0.0
2015-Jun-27 13:33N 67°17' E 014°22'0 0.0
2015-Jun-27 12:34N 67°17' E 014°22'0 0.0
2015-Jun-27 11:33N 67°17' E 014°22'0 0.0
2015-Jun-27 10:34N 67°17' E 014°22'0 0.0
2015-Jun-27 09:33N 67°17' E 014°22'0 0.0
2015-Jun-27 08:33N 67°17' E 014°22'7 7.3
2015-Jun-27 07:33N 67°24' E 014°26'8 0.5
2015-Jun-26 16:34N 67°30' E 014°39'1514.6
2015-Jun-26 15:33N 67°17' E 014°22'7 3.7
2015-Jun-26 13:34N 67°24' E 014°27'7 7.1
2015-Jun-26 12:33N 67°17' E 014°23'0 0.4
2015-Jun-26 11:33N 67°17' E 014°22'0 0.0
2015-Jun-26 10:33N 67°17' E 014°22'0 0.0
2015-Jun-26 09:33N 67°17' E 014°22'0 0.0
2015-Jun-26 08:33N 67°17' E 014°22'8 7.6
2015-Jun-26 07:34N 67°24' E 014°27'1 0.0
2015-Jun-25 15:34N 67°25' E 014°27'8 8.2
2015-Jun-25 14:33N 67°17' E 014°22'0 0.0
2015-Jun-25 13:33N 67°17' E 014°22'0 0.0
2015-Jun-25 12:33N 67°17' E 014°22'0 0.0
2015-Jun-25 11:33N 67°17' E 014°22'0 0.0
2015-Jun-25 10:33N 67°17' E 014°22'0 0.0
2015-Jun-25 09:33N 67°17' E 014°22'0 0.0
2015-Jun-25 08:33N 67°17' E 014°22'1211.8
2015-Jun-25 07:34N 67°28' E 014°35'  

Dump ship's entire track history